Airfield :
LOGIN :

Register | Disclaimer

   EN    FR    IT 

 










Legend :    VFR   Marginal VFR   IFR   Intensive IFR   Very Intensive IFR
Visi :
Ceiling :
>= 8 km
>= 3000ft
5 to 8 km
1000 to 3000 ft
1500m to 5 km
500 to 1000 ft
800 to 1500m
200 to 500 ft
< 800m
< 200 ft
Symbols :   Thunderstorms  Fog  Heavy snow  Heavy precipitations  Wind > 20 kt
SIGMETs :     Misc.  Thunderstorms  Icing  Turbulence  Mountain Waves  Volcanic Ashes







- Airport Elevation : 364 ft
- Download approach charts


LFAQ - Albert Bray

CURRENT METAR :
  • 160730Z AUTO 16004KT 0300 R27/0400N FG VV/// 02/02 Q1010 NOSIG

EXPIRED METARs :
  • 160700Z AUTO 16008KT 0350 0300 R27/0450N FG VV/// 02/02 Q1009 NOSIG
  • 160630Z AUTO 16007KT 0300 R27/0400N FG VV/// 01/01 Q1010 NOSIG
  • 160600Z AUTO 16005KT 0300 0250 R27/0400N FG VV/// 01/01 Q1010 NOSIG
  • 160530Z AUTO 17004KT 0350 0300 R27/0450N FG VV/// 01/01 Q1010 NOSIG
  • 160500Z AUTO 19008KT 0350 0300 R27/0500N FG VV/// 01/01 Q1009

TAF TAF LFAQ
Valid from the 16 at 06:00 until the 16 at 15:00 UTC


160500Z 1606/1615 21012KT 3000 BR OVC005
PROB40 1606/1610 0300 FG VV///
PROB30
TEMPO 1612/1615 7000 NSW OVC012
No reported NOTAMs for that airfield.



MET'MAP, your aeronautical weather chart ! - Copyright ORBIFLY December 2007 - Disclaimer

ORBIFLY MET'MAP TEAM :

Programming & Development : Alexandra Zaïnal
Concept & Development : Baudouin d'Aumeries
Co-Development & Prog : Marc-Olivier Méhu
Technical & hardware support : Manuel Goepfert

Contact : metmap@orbifly.com




SOURCES & CREDITS :

   NOAA